sensor_id;sensor_type;location;lat;lon;timestamp;P1;durP1;ratioP1;P2;durP2;ratioP2
85613;SDS011;76041;50.924;3.932;2024-03-07T00:01:02;28.95;;;15.10;;
85613;SDS011;76041;50.924;3.932;2024-03-07T00:03:29;29.27;;;16.55;;
85613;SDS011;76041;50.924;3.932;2024-03-07T00:05:54;30.55;;;16.10;;
85613;SDS011;76041;50.924;3.932;2024-03-07T00:08:20;35.75;;;17.75;;
85613;SDS011;76041;50.924;3.932;2024-03-07T00:10:46;38.60;;;18.40;;
85613;SDS011;76041;50.924;3.932;2024-03-07T00:13:12;41.50;;;20.20;;
85613;SDS011;76041;50.924;3.932;2024-03-07T00:15:39;37.70;;;18.52;;
85613;SDS011;76041;50.924;3.932;2024-03-07T00:18:05;35.90;;;17.95;;
85613;SDS011;76041;50.924;3.932;2024-03-07T00:20:31;35.13;;;18.63;;
85613;SDS011;76041;50.924;3.932;2024-03-07T00:22:57;31.95;;;17.15;;
85613;SDS011;76041;50.924;3.932;2024-03-07T00:25:23;31.23;;;16.48;;
85613;SDS011;76041;50.924;3.932;2024-03-07T00:27:48;32.13;;;17.02;;
85613;SDS011;76041;50.924;3.932;2024-03-07T00:30:18;33.42;;;17.00;;
85613;SDS011;76041;50.924;3.932;2024-03-07T00:32:45;33.15;;;17.40;;
85613;SDS011;76041;50.924;3.932;2024-03-07T00:35:14;31.00;;;15.52;;
85613;SDS011;76041;50.924;3.932;2024-03-07T00:37:40;31.50;;;17.33;;
85613;SDS011;76041;50.924;3.932;2024-03-07T00:40:06;33.70;;;17.17;;
85613;SDS011;76041;50.924;3.932;2024-03-07T00:42:32;30.55;;;16.08;;
85613;SDS011;76041;50.924;3.932;2024-03-07T00:44:59;31.17;;;17.17;;
85613;SDS011;76041;50.924;3.932;2024-03-07T00:47:24;39.05;;;17.40;;
85613;SDS011;76041;50.924;3.932;2024-03-07T00:49:50;31.75;;;16.42;;
85613;SDS011;76041;50.924;3.932;2024-03-07T00:52:16;34.03;;;18.25;;
85613;SDS011;76041;50.924;3.932;2024-03-07T00:54:42;35.65;;;17.23;;
85613;SDS011;76041;50.924;3.932;2024-03-07T00:57:08;36.53;;;17.58;;
85613;SDS011;76041;50.924;3.932;2024-03-07T00:59:34;32.67;;;17.92;;
85613;SDS011;76041;50.924;3.932;2024-03-07T01:02:01;29.90;;;16.08;;
85613;SDS011;76041;50.924;3.932;2024-03-07T01:04:27;27.75;;;16.08;;
85613;SDS011;76041;50.924;3.932;2024-03-07T01:06:59;28.75;;;16.35;;
85613;SDS011;76041;50.924;3.932;2024-03-07T01:09:25;29.98;;;16.98;;
85613;SDS011;76041;50.924;3.932;2024-03-07T01:11:53;34.10;;;17.08;;
85613;SDS011;76041;50.924;3.932;2024-03-07T01:14:20;33.47;;;17.80;;
85613;SDS011;76041;50.924;3.932;2024-03-07T01:16:47;27.88;;;16.17;;
85613;SDS011;76041;50.924;3.932;2024-03-07T01:19:13;36.80;;;17.15;;
85613;SDS011;76041;50.924;3.932;2024-03-07T01:21:40;36.33;;;17.95;;
85613;SDS011;76041;50.924;3.932;2024-03-07T01:24:06;32.85;;;17.23;;
85613;SDS011;76041;50.924;3.932;2024-03-07T01:26:31;33.78;;;18.15;;
85613;SDS011;76041;50.924;3.932;2024-03-07T01:28:58;30.02;;;17.10;;
85613;SDS011;76041;50.924;3.932;2024-03-07T01:31:24;33.70;;;16.30;;
85613;SDS011;76041;50.924;3.932;2024-03-07T01:33:51;29.52;;;16.20;;
85613;SDS011;76041;50.924;3.932;2024-03-07T01:36:18;29.55;;;16.73;;
85613;SDS011;76041;50.924;3.932;2024-03-07T01:38:44;26.95;;;14.93;;
85613;SDS011;76041;50.924;3.932;2024-03-07T01:41:10;29.33;;;15.52;;
85613;SDS011;76041;50.924;3.932;2024-03-07T01:43:36;30.10;;;17.20;;
85613;SDS011;76041;50.924;3.932;2024-03-07T01:46:02;35.65;;;17.55;;
85613;SDS011;76041;50.924;3.932;2024-03-07T01:48:30;34.53;;;16.27;;
85613;SDS011;76041;50.924;3.932;2024-03-07T01:50:57;34.42;;;17.65;;
85613;SDS011;76041;50.924;3.932;2024-03-07T01:53:25;38.17;;;18.33;;
85613;SDS011;76041;50.924;3.932;2024-03-07T01:55:53;30.83;;;17.00;;
85613;SDS011;76041;50.924;3.932;2024-03-07T01:58:19;34.42;;;18.23;;
85613;SDS011;76041;50.924;3.932;2024-03-07T02:00:46;39.42;;;19.40;;
85613;SDS011;76041;50.924;3.932;2024-03-07T02:03:13;41.03;;;19.60;;
85613;SDS011;76041;50.924;3.932;2024-03-07T02:05:39;35.00;;;19.08;;
85613;SDS011;76041;50.924;3.932;2024-03-07T02:08:06;42.00;;;18.98;;
85613;SDS011;76041;50.924;3.932;2024-03-07T02:10:32;30.98;;;17.38;;
85613;SDS011;76041;50.924;3.932;2024-03-07T02:12:58;34.50;;;17.83;;
85613;SDS011;76041;50.924;3.932;2024-03-07T02:15:25;32.08;;;17.08;;
85613;SDS011;76041;50.924;3.932;2024-03-07T02:17:50;32.00;;;17.25;;
85613;SDS011;76041;50.924;3.932;2024-03-07T02:20:16;34.90;;;18.05;;
85613;SDS011;76041;50.924;3.932;2024-03-07T02:22:42;33.25;;;17.65;;
85613;SDS011;76041;50.924;3.932;2024-03-07T02:25:08;36.75;;;16.98;;
85613;SDS011;76041;50.924;3.932;2024-03-07T02:27:38;33.70;;;17.88;;
85613;SDS011;76041;50.924;3.932;2024-03-07T02:30:04;42.92;;;18.23;;
85613;SDS011;76041;50.924;3.932;2024-03-07T02:32:34;30.00;;;17.73;;
85613;SDS011;76041;50.924;3.932;2024-03-07T02:35:02;38.15;;;19.13;;
85613;SDS011;76041;50.924;3.932;2024-03-07T02:37:31;42.80;;;20.17;;
85613;SDS011;76041;50.924;3.932;2024-03-07T02:39:57;43.42;;;19.90;;
85613;SDS011;76041;50.924;3.932;2024-03-07T02:42:23;43.08;;;19.25;;
85613;SDS011;76041;50.924;3.932;2024-03-07T02:44:49;37.33;;;18.35;;
85613;SDS011;76041;50.924;3.932;2024-03-07T02:47:15;39.78;;;20.23;;
85613;SDS011;76041;50.924;3.932;2024-03-07T02:49:42;33.95;;;18.60;;
85613;SDS011;76041;50.924;3.932;2024-03-07T02:52:09;35.20;;;18.65;;
85613;SDS011;76041;50.924;3.932;2024-03-07T02:54:35;40.85;;;20.30;;
85613;SDS011;76041;50.924;3.932;2024-03-07T02:57:01;48.08;;;21.35;;
85613;SDS011;76041;50.924;3.932;2024-03-07T02:59:27;48.95;;;21.30;;
85613;SDS011;76041;50.924;3.932;2024-03-07T03:01:53;48.10;;;24.20;;
85613;SDS011;76041;50.924;3.932;2024-03-07T03:04:19;47.60;;;23.38;;
85613;SDS011;76041;50.924;3.932;2024-03-07T03:06:45;61.83;;;25.52;;
85613;SDS011;76041;50.924;3.932;2024-03-07T03:09:11;56.08;;;25.35;;
85613;SDS011;76041;50.924;3.932;2024-03-07T03:11:42;64.45;;;26.90;;
85613;SDS011;76041;50.924;3.932;2024-03-07T03:14:09;61.95;;;27.73;;
85613;SDS011;76041;50.924;3.932;2024-03-07T03:16:42;66.03;;;29.58;;
85613;SDS011;76041;50.924;3.932;2024-03-07T03:19:09;68.43;;;29.90;;
85613;SDS011;76041;50.924;3.932;2024-03-07T03:21:35;69.47;;;29.33;;
85613;SDS011;76041;50.924;3.932;2024-03-07T03:24:02;57.72;;;26.40;;
85613;SDS011;76041;50.924;3.932;2024-03-07T03:26:28;54.75;;;25.52;;
85613;SDS011;76041;50.924;3.932;2024-03-07T03:28:54;59.38;;;25.40;;
85613;SDS011;76041;50.924;3.932;2024-03-07T03:33:46;50.50;;;23.92;;
85613;SDS011;76041;50.924;3.932;2024-03-07T03:36:11;49.40;;;24.48;;
85613;SDS011;76041;50.924;3.932;2024-03-07T03:38:39;52.65;;;23.75;;
85613;SDS011;76041;50.924;3.932;2024-03-07T03:41:05;51.75;;;25.85;;
85613;SDS011;76041;50.924;3.932;2024-03-07T03:43:31;66.70;;;27.10;;
85613;SDS011;76041;50.924;3.932;2024-03-07T03:45:57;71.60;;;30.45;;
85613;SDS011;76041;50.924;3.932;2024-03-07T03:48:23;70.95;;;31.63;;
85613;SDS011;76041;50.924;3.932;2024-03-07T03:50:49;71.38;;;31.10;;
85613;SDS011;76041;50.924;3.932;2024-03-07T03:53:14;66.95;;;30.02;;
85613;SDS011;76041;50.924;3.932;2024-03-07T03:55:40;57.25;;;26.17;;
85613;SDS011;76041;50.924;3.932;2024-03-07T03:58:06;50.75;;;23.70;;
85613;SDS011;76041;50.924;3.932;2024-03-07T04:00:32;68.50;;;31.90;;
85613;SDS011;76041;50.924;3.932;2024-03-07T04:02:58;77.32;;;30.30;;
85613;SDS011;76041;50.924;3.932;2024-03-07T04:05:24;76.20;;;32.05;;
85613;SDS011;76041;50.924;3.932;2024-03-07T04:07:50;77.00;;;31.88;;
85613;SDS011;76041;50.924;3.932;2024-03-07T04:10:16;80.13;;;33.88;;
85613;SDS011;76041;50.924;3.932;2024-03-07T04:12:42;83.55;;;34.97;;
85613;SDS011;76041;50.924;3.932;2024-03-07T04:15:10;89.80;;;37.08;;
85613;SDS011;76041;50.924;3.932;2024-03-07T04:17:38;101.35;;;38.00;;
85613;SDS011;76041;50.924;3.932;2024-03-07T04:20:05;86.68;;;36.42;;
85613;SDS011;76041;50.924;3.932;2024-03-07T04:22:35;97.40;;;37.45;;
85613;SDS011;76041;50.924;3.932;2024-03-07T04:25:04;101.80;;;39.25;;
85613;SDS011;76041;50.924;3.932;2024-03-07T04:27:32;99.85;;;37.63;;
85613;SDS011;76041;50.924;3.932;2024-03-07T04:30:02;91.90;;;39.45;;
85613;SDS011;76041;50.924;3.932;2024-03-07T04:32:29;108.80;;;40.45;;
85613;SDS011;76041;50.924;3.932;2024-03-07T04:34:55;92.22;;;37.45;;
85613;SDS011;76041;50.924;3.932;2024-03-07T04:37:25;97.82;;;37.15;;
85613;SDS011;76041;50.924;3.932;2024-03-07T04:39:54;88.57;;;38.20;;
85613;SDS011;76041;50.924;3.932;2024-03-07T04:42:20;96.05;;;38.75;;
85613;SDS011;76041;50.924;3.932;2024-03-07T04:44:46;97.53;;;38.88;;
85613;SDS011;76041;50.924;3.932;2024-03-07T04:47:12;98.32;;;39.55;;
85613;SDS011;76041;50.924;3.932;2024-03-07T04:49:38;98.93;;;39.60;;
85613;SDS011;76041;50.924;3.932;2024-03-07T04:52:05;102.57;;;40.13;;
85613;SDS011;76041;50.924;3.932;2024-03-07T04:54:31;99.47;;;41.03;;
85613;SDS011;76041;50.924;3.932;2024-03-07T04:56:59;103.93;;;40.65;;
85613;SDS011;76041;50.924;3.932;2024-03-07T04:59:25;101.40;;;40.22;;
85613;SDS011;76041;50.924;3.932;2024-03-07T05:01:51;101.85;;;40.15;;
85613;SDS011;76041;50.924;3.932;2024-03-07T05:04:17;107.65;;;40.05;;
85613;SDS011;76041;50.924;3.932;2024-03-07T05:06:43;102.90;;;39.55;;
85613;SDS011;76041;50.924;3.932;2024-03-07T05:09:12;97.07;;;40.03;;
85613;SDS011;76041;50.924;3.932;2024-03-07T05:11:48;93.50;;;38.25;;
85613;SDS011;76041;50.924;3.932;2024-03-07T05:14:17;95.70;;;38.22;;
85613;SDS011;76041;50.924;3.932;2024-03-07T05:16:43;86.43;;;35.85;;
85613;SDS011;76041;50.924;3.932;2024-03-07T05:19:09;80.22;;;33.78;;
85613;SDS011;76041;50.924;3.932;2024-03-07T05:21:36;76.22;;;33.42;;
85613;SDS011;76041;50.924;3.932;2024-03-07T05:24:08;82.22;;;35.28;;
85613;SDS011;76041;50.924;3.932;2024-03-07T05:26:34;84.72;;;34.85;;
85613;SDS011;76041;50.924;3.932;2024-03-07T05:29:06;82.45;;;34.22;;
85613;SDS011;76041;50.924;3.932;2024-03-07T05:31:36;82.10;;;34.83;;
85613;SDS011;76041;50.924;3.932;2024-03-07T05:34:03;102.95;;;41.28;;
85613;SDS011;76041;50.924;3.932;2024-03-07T05:36:35;98.30;;;39.47;;
85613;SDS011;76041;50.924;3.932;2024-03-07T05:39:09;109.90;;;42.10;;
85613;SDS011;76041;50.924;3.932;2024-03-07T05:41:38;95.35;;;39.83;;
85613;SDS011;76041;50.924;3.932;2024-03-07T05:44:05;95.47;;;39.22;;
85613;SDS011;76041;50.924;3.932;2024-03-07T05:46:41;96.60;;;39.67;;
85613;SDS011;76041;50.924;3.932;2024-03-07T05:49:14;116.05;;;41.13;;
85613;SDS011;76041;50.924;3.932;2024-03-07T05:51:42;97.75;;;41.63;;
85613;SDS011;76041;50.924;3.932;2024-03-07T05:54:10;110.38;;;41.38;;
85613;SDS011;76041;50.924;3.932;2024-03-07T05:56:38;104.07;;;40.67;;
85613;SDS011;76041;50.924;3.932;2024-03-07T05:59:05;98.85;;;41.60;;
85613;SDS011;76041;50.924;3.932;2024-03-07T06:01:37;120.95;;;42.75;;
85613;SDS011;76041;50.924;3.932;2024-03-07T06:04:05;101.05;;;40.15;;
85613;SDS011;76041;50.924;3.932;2024-03-07T06:06:32;108.85;;;40.45;;
85613;SDS011;76041;50.924;3.932;2024-03-07T06:09:03;111.95;;;41.97;;
85613;SDS011;76041;50.924;3.932;2024-03-07T06:11:35;107.03;;;38.75;;
85613;SDS011;76041;50.924;3.932;2024-03-07T06:14:02;135.77;;;45.08;;
85613;SDS011;76041;50.924;3.932;2024-03-07T06:16:33;131.43;;;44.78;;
85613;SDS011;76041;50.924;3.932;2024-03-07T06:19:03;138.00;;;44.70;;
85613;SDS011;76041;50.924;3.932;2024-03-07T06:21:33;153.90;;;46.95;;
85613;SDS011;76041;50.924;3.932;2024-03-07T06:24:00;143.15;;;47.60;;
85613;SDS011;76041;50.924;3.932;2024-03-07T06:26:28;174.10;;;49.55;;
85613;SDS011;76041;50.924;3.932;2024-03-07T06:29:17;156.75;;;48.40;;
85613;SDS011;76041;50.924;3.932;2024-03-07T06:31:43;169.20;;;49.17;;
85613;SDS011;76041;50.924;3.932;2024-03-07T06:34:13;169.05;;;48.08;;
85613;SDS011;76041;50.924;3.932;2024-03-07T06:36:39;180.90;;;52.63;;
85613;SDS011;76041;50.924;3.932;2024-03-07T06:39:05;171.48;;;49.70;;
85613;SDS011;76041;50.924;3.932;2024-03-07T06:41:32;166.45;;;49.63;;
85613;SDS011;76041;50.924;3.932;2024-03-07T06:43:59;171.95;;;49.08;;
85613;SDS011;76041;50.924;3.932;2024-03-07T06:46:25;178.68;;;51.55;;
85613;SDS011;76041;50.924;3.932;2024-03-07T06:48:51;180.13;;;50.25;;
85613;SDS011;76041;50.924;3.932;2024-03-07T06:51:16;170.27;;;50.05;;
85613;SDS011;76041;50.924;3.932;2024-03-07T06:53:43;172.05;;;49.35;;
85613;SDS011;76041;50.924;3.932;2024-03-07T06:56:12;169.15;;;48.25;;
85613;SDS011;76041;50.924;3.932;2024-03-07T06:58:38;165.93;;;47.45;;
85613;SDS011;76041;50.924;3.932;2024-03-07T07:01:04;176.00;;;50.28;;
85613;SDS011;76041;50.924;3.932;2024-03-07T07:03:34;181.32;;;48.70;;
85613;SDS011;76041;50.924;3.932;2024-03-07T07:06:03;167.07;;;48.05;;
85613;SDS011;76041;50.924;3.932;2024-03-07T07:08:32;175.32;;;48.88;;
85613;SDS011;76041;50.924;3.932;2024-03-07T07:10:58;184.20;;;48.60;;
85613;SDS011;76041;50.924;3.932;2024-03-07T07:13:24;173.73;;;48.38;;
85613;SDS011;76041;50.924;3.932;2024-03-07T07:15:50;178.00;;;49.08;;
85613;SDS011;76041;50.924;3.932;2024-03-07T07:18:18;177.43;;;50.63;;
85613;SDS011;76041;50.924;3.932;2024-03-07T07:20:44;176.55;;;47.97;;
85613;SDS011;76041;50.924;3.932;2024-03-07T07:23:10;174.10;;;48.35;;
85613;SDS011;76041;50.924;3.932;2024-03-07T07:25:36;162.23;;;47.13;;
85613;SDS011;76041;50.924;3.932;2024-03-07T07:28:02;178.93;;;50.08;;
85613;SDS011;76041;50.924;3.932;2024-03-07T07:30:36;169.13;;;49.28;;
85613;SDS011;76041;50.924;3.932;2024-03-07T07:33:02;157.80;;;46.22;;
85613;SDS011;76041;50.924;3.932;2024-03-07T07:35:28;155.32;;;46.72;;
85613;SDS011;76041;50.924;3.932;2024-03-07T07:37:54;163.00;;;48.45;;
85613;SDS011;76041;50.924;3.932;2024-03-07T07:40:21;149.02;;;47.35;;
85613;SDS011;76041;50.924;3.932;2024-03-07T07:42:49;151.73;;;45.47;;
85613;SDS011;76041;50.924;3.932;2024-03-07T07:45:20;144.68;;;45.65;;
85613;SDS011;76041;50.924;3.932;2024-03-07T07:47:48;139.02;;;42.15;;
85613;SDS011;76041;50.924;3.932;2024-03-07T07:50:15;127.82;;;42.95;;
85613;SDS011;76041;50.924;3.932;2024-03-07T07:52:51;133.20;;;43.33;;
85613;SDS011;76041;50.924;3.932;2024-03-07T07:55:19;139.15;;;44.58;;
85613;SDS011;76041;50.924;3.932;2024-03-07T07:57:47;132.73;;;43.88;;
85613;SDS011;76041;50.924;3.932;2024-03-07T08:00:15;134.57;;;44.03;;
85613;SDS011;76041;50.924;3.932;2024-03-07T08:05:20;134.20;;;41.85;;
85613;SDS011;76041;50.924;3.932;2024-03-07T08:07:50;150.98;;;45.67;;
85613;SDS011;76041;50.924;3.932;2024-03-07T08:10:20;134.20;;;46.13;;
85613;SDS011;76041;50.924;3.932;2024-03-07T08:12:48;134.52;;;43.67;;
85613;SDS011;76041;50.924;3.932;2024-03-07T08:15:14;149.40;;;44.47;;
85613;SDS011;76041;50.924;3.932;2024-03-07T08:17:41;131.20;;;42.38;;
85613;SDS011;76041;50.924;3.932;2024-03-07T08:20:10;138.15;;;42.72;;
85613;SDS011;76041;50.924;3.932;2024-03-07T08:22:37;146.95;;;44.20;;
85613;SDS011;76041;50.924;3.932;2024-03-07T08:25:06;140.43;;;45.42;;
85613;SDS011;76041;50.924;3.932;2024-03-07T08:27:36;138.05;;;45.88;;
85613;SDS011;76041;50.924;3.932;2024-03-07T08:30:03;135.57;;;42.90;;
85613;SDS011;76041;50.924;3.932;2024-03-07T08:32:33;137.20;;;42.15;;
85613;SDS011;76041;50.924;3.932;2024-03-07T08:35:05;141.18;;;44.03;;
85613;SDS011;76041;50.924;3.932;2024-03-07T08:37:35;132.48;;;42.38;;
85613;SDS011;76041;50.924;3.932;2024-03-07T08:40:01;139.50;;;43.70;;
85613;SDS011;76041;50.924;3.932;2024-03-07T08:42:44;120.72;;;41.60;;
85613;SDS011;76041;50.924;3.932;2024-03-07T08:45:20;135.73;;;43.10;;
85613;SDS011;76041;50.924;3.932;2024-03-07T08:47:46;156.27;;;46.17;;
85613;SDS011;76041;50.924;3.932;2024-03-07T08:50:14;154.70;;;45.78;;
85613;SDS011;76041;50.924;3.932;2024-03-07T08:52:41;148.40;;;45.33;;
85613;SDS011;76041;50.924;3.932;2024-03-07T08:55:08;158.95;;;45.97;;
85613;SDS011;76041;50.924;3.932;2024-03-07T08:57:37;147.45;;;44.65;;
85613;SDS011;76041;50.924;3.932;2024-03-07T09:00:04;161.70;;;46.38;;
85613;SDS011;76041;50.924;3.932;2024-03-07T09:02:36;149.48;;;44.15;;
85613;SDS011;76041;50.924;3.932;2024-03-07T09:05:03;145.73;;;45.00;;
85613;SDS011;76041;50.924;3.932;2024-03-07T09:07:29;155.88;;;44.65;;
85613;SDS011;76041;50.924;3.932;2024-03-07T09:09:56;149.93;;;45.60;;
85613;SDS011;76041;50.924;3.932;2024-03-07T09:12:22;160.90;;;45.83;;
85613;SDS011;76041;50.924;3.932;2024-03-07T09:14:50;151.70;;;44.83;;
85613;SDS011;76041;50.924;3.932;2024-03-07T09:17:25;142.95;;;43.97;;
85613;SDS011;76041;50.924;3.932;2024-03-07T09:19:51;142.75;;;43.20;;
85613;SDS011;76041;50.924;3.932;2024-03-07T09:22:17;148.05;;;42.72;;
85613;SDS011;76041;50.924;3.932;2024-03-07T09:24:43;148.35;;;44.22;;
85613;SDS011;76041;50.924;3.932;2024-03-07T09:27:09;136.68;;;42.35;;
85613;SDS011;76041;50.924;3.932;2024-03-07T09:29:34;134.77;;;42.63;;
85613;SDS011;76041;50.924;3.932;2024-03-07T09:32:01;127.00;;;41.92;;
85613;SDS011;76041;50.924;3.932;2024-03-07T09:34:27;121.63;;;40.42;;
85613;SDS011;76041;50.924;3.932;2024-03-07T09:36:56;129.23;;;41.38;;
85613;SDS011;76041;50.924;3.932;2024-03-07T09:39:22;117.35;;;39.65;;
85613;SDS011;76041;50.924;3.932;2024-03-07T09:41:49;110.97;;;38.47;;
85613;SDS011;76041;50.924;3.932;2024-03-07T09:44:16;113.70;;;38.67;;
85613;SDS011;76041;50.924;3.932;2024-03-07T09:46:48;117.53;;;40.10;;
85613;SDS011;76041;50.924;3.932;2024-03-07T09:49:21;121.90;;;40.58;;
85613;SDS011;76041;50.924;3.932;2024-03-07T09:51:47;123.53;;;40.47;;
85613;SDS011;76041;50.924;3.932;2024-03-07T09:54:22;108.10;;;38.97;;
85613;SDS011;76041;50.924;3.932;2024-03-07T09:56:50;106.70;;;36.15;;
85613;SDS011;76041;50.924;3.932;2024-03-07T09:59:19;109.22;;;38.65;;
85613;SDS011;76041;50.924;3.932;2024-03-07T10:01:49;107.03;;;36.75;;
85613;SDS011;76041;50.924;3.932;2024-03-07T10:04:18;99.03;;;36.42;;
85613;SDS011;76041;50.924;3.932;2024-03-07T10:07:07;94.47;;;34.95;;
85613;SDS011;76041;50.924;3.932;2024-03-07T10:09:39;100.18;;;38.10;;
85613;SDS011;76041;50.924;3.932;2024-03-07T10:12:05;100.80;;;37.95;;
85613;SDS011;76041;50.924;3.932;2024-03-07T10:14:35;99.32;;;37.47;;
85613;SDS011;76041;50.924;3.932;2024-03-07T10:17:02;102.45;;;37.95;;
85613;SDS011;76041;50.924;3.932;2024-03-07T10:19:29;99.60;;;36.90;;
85613;SDS011;76041;50.924;3.932;2024-03-07T10:21:56;93.10;;;35.25;;
85613;SDS011;76041;50.924;3.932;2024-03-07T10:24:27;92.60;;;34.35;;
85613;SDS011;76041;50.924;3.932;2024-03-07T10:26:53;93.93;;;35.70;;
85613;SDS011;76041;50.924;3.932;2024-03-07T10:29:23;92.38;;;36.28;;
85613;SDS011;76041;50.924;3.932;2024-03-07T10:31:50;95.20;;;35.13;;
85613;SDS011;76041;50.924;3.932;2024-03-07T10:34:15;83.63;;;35.08;;
85613;SDS011;76041;50.924;3.932;2024-03-07T10:36:42;82.47;;;33.85;;
85613;SDS011;76041;50.924;3.932;2024-03-07T10:39:08;80.80;;;32.55;;
85613;SDS011;76041;50.924;3.932;2024-03-07T10:41:44;85.32;;;34.88;;
85613;SDS011;76041;50.924;3.932;2024-03-07T10:46:46;77.88;;;32.92;;
85613;SDS011;76041;50.924;3.932;2024-03-07T10:49:19;69.15;;;30.35;;
85613;SDS011;76041;50.924;3.932;2024-03-07T10:52:34;63.45;;;30.52;;
85613;SDS011;76041;50.924;3.932;2024-03-07T10:59:38;67.75;;;31.05;;
85613;SDS011;76041;50.924;3.932;2024-03-07T11:05:20;64.88;;;29.70;;
85613;SDS011;76041;50.924;3.932;2024-03-07T11:07:52;70.22;;;29.83;;
85613;SDS011;76041;50.924;3.932;2024-03-07T11:10:19;60.33;;;29.20;;
85613;SDS011;76041;50.924;3.932;2024-03-07T11:12:45;58.75;;;28.73;;
85613;SDS011;76041;50.924;3.932;2024-03-07T11:15:16;55.47;;;27.52;;
85613;SDS011;76041;50.924;3.932;2024-03-07T11:17:45;75.35;;;28.50;;
85613;SDS011;76041;50.924;3.932;2024-03-07T11:20:19;60.38;;;27.73;;
85613;SDS011;76041;50.924;3.932;2024-03-07T11:22:48;66.35;;;27.98;;
85613;SDS011;76041;50.924;3.932;2024-03-07T11:25:18;54.00;;;26.83;;
85613;SDS011;76041;50.924;3.932;2024-03-07T11:27:57;56.35;;;27.88;;
85613;SDS011;76041;50.924;3.932;2024-03-07T11:30:26;59.20;;;27.83;;
85613;SDS011;76041;50.924;3.932;2024-03-07T11:32:52;54.58;;;27.30;;
85613;SDS011;76041;50.924;3.932;2024-03-07T11:35:19;54.42;;;27.60;;
85613;SDS011;76041;50.924;3.932;2024-03-07T11:37:59;51.70;;;26.58;;
85613;SDS011;76041;50.924;3.932;2024-03-07T11:42:51;52.30;;;26.33;;
85613;SDS011;76041;50.924;3.932;2024-03-07T11:45:19;54.05;;;26.45;;
85613;SDS011;76041;50.924;3.932;2024-03-07T11:47:53;54.67;;;25.98;;
85613;SDS011;76041;50.924;3.932;2024-03-07T11:50:32;57.90;;;28.30;;
85613;SDS011;76041;50.924;3.932;2024-03-07T11:53:00;53.35;;;26.40;;
85613;SDS011;76041;50.924;3.932;2024-03-07T11:55:27;56.25;;;25.85;;
85613;SDS011;76041;50.924;3.932;2024-03-07T11:58:11;56.53;;;27.25;;
85613;SDS011;76041;50.924;3.932;2024-03-07T12:00:48;56.25;;;27.75;;
85613;SDS011;76041;50.924;3.932;2024-03-07T12:03:19;53.30;;;25.88;;
85613;SDS011;76041;50.924;3.932;2024-03-07T12:05:47;45.60;;;24.30;;
85613;SDS011;76041;50.924;3.932;2024-03-07T12:08:13;48.92;;;26.70;;
85613;SDS011;76041;50.924;3.932;2024-03-07T12:10:40;50.03;;;25.08;;
85613;SDS011;76041;50.924;3.932;2024-03-07T12:13:11;50.03;;;24.98;;
85613;SDS011;76041;50.924;3.932;2024-03-07T12:15:37;51.05;;;24.20;;
85613;SDS011;76041;50.924;3.932;2024-03-07T12:18:04;49.88;;;24.48;;
85613;SDS011;76041;50.924;3.932;2024-03-07T12:20:37;47.75;;;24.52;;
85613;SDS011;76041;50.924;3.932;2024-03-07T12:23:07;50.40;;;23.88;;
85613;SDS011;76041;50.924;3.932;2024-03-07T12:25:36;47.90;;;24.45;;
85613;SDS011;76041;50.924;3.932;2024-03-07T12:28:03;47.13;;;23.73;;
85613;SDS011;76041;50.924;3.932;2024-03-07T12:30:56;46.13;;;25.20;;
85613;SDS011;76041;50.924;3.932;2024-03-07T12:33:22;47.67;;;24.50;;
85613;SDS011;76041;50.924;3.932;2024-03-07T12:35:52;48.35;;;23.65;;
85613;SDS011;76041;50.924;3.932;2024-03-07T12:38:25;48.83;;;23.30;;
85613;SDS011;76041;50.924;3.932;2024-03-07T12:43:31;46.17;;;22.67;;
85613;SDS011;76041;50.924;3.932;2024-03-07T12:45:57;43.88;;;23.05;;
85613;SDS011;76041;50.924;3.932;2024-03-07T12:48:24;46.97;;;23.10;;
85613;SDS011;76041;50.924;3.932;2024-03-07T12:50:50;40.85;;;21.58;;
85613;SDS011;76041;50.924;3.932;2024-03-07T12:53:20;46.17;;;21.40;;
85613;SDS011;76041;50.924;3.932;2024-03-07T12:55:47;46.75;;;22.45;;
85613;SDS011;76041;50.924;3.932;2024-03-07T12:58:14;50.53;;;22.65;;
85613;SDS011;76041;50.924;3.932;2024-03-07T13:00:40;41.15;;;21.85;;
85613;SDS011;76041;50.924;3.932;2024-03-07T13:03:10;42.78;;;21.45;;
85613;SDS011;76041;50.924;3.932;2024-03-07T13:05:36;42.05;;;21.58;;
85613;SDS011;76041;50.924;3.932;2024-03-07T13:08:06;49.92;;;22.98;;
85613;SDS011;76041;50.924;3.932;2024-03-07T13:10:39;47.05;;;22.48;;
85613;SDS011;76041;50.924;3.932;2024-03-07T13:13:07;48.58;;;22.90;;
85613;SDS011;76041;50.924;3.932;2024-03-07T13:15:36;47.92;;;23.25;;
85613;SDS011;76041;50.924;3.932;2024-03-07T13:18:04;46.05;;;24.10;;
85613;SDS011;76041;50.924;3.932;2024-03-07T13:20:31;45.08;;;23.40;;
85613;SDS011;76041;50.924;3.932;2024-03-07T13:22:57;41.13;;;23.33;;
85613;SDS011;76041;50.924;3.932;2024-03-07T13:25:26;45.05;;;23.85;;
85613;SDS011;76041;50.924;3.932;2024-03-07T13:30:32;43.70;;;23.05;;
85613;SDS011;76041;50.924;3.932;2024-03-07T13:33:01;46.05;;;22.60;;
85613;SDS011;76041;50.924;3.932;2024-03-07T13:35:28;44.15;;;23.90;;
85613;SDS011;76041;50.924;3.932;2024-03-07T13:37:55;45.58;;;25.35;;
85613;SDS011;76041;50.924;3.932;2024-03-07T13:40:22;41.10;;;23.52;;
85613;SDS011;76041;50.924;3.932;2024-03-07T13:42:50;48.78;;;26.30;;
85613;SDS011;76041;50.924;3.932;2024-03-07T13:45:26;46.83;;;25.02;;
85613;SDS011;76041;50.924;3.932;2024-03-07T13:47:55;47.75;;;25.80;;
85613;SDS011;76041;50.924;3.932;2024-03-07T13:50:23;49.33;;;25.27;;
85613;SDS011;76041;50.924;3.932;2024-03-07T13:52:50;45.72;;;25.70;;
85613;SDS011;76041;50.924;3.932;2024-03-07T13:55:46;45.38;;;25.55;;
85613;SDS011;76041;50.924;3.932;2024-03-07T14:06:41;46.80;;;25.48;;
85613;SDS011;76041;50.924;3.932;2024-03-07T14:18:18;45.25;;;23.85;;
85613;SDS011;76041;50.924;3.932;2024-03-07T14:31:47;44.03;;;25.20;;
85613;SDS011;76041;50.924;3.932;2024-03-07T14:36:47;39.78;;;24.48;;
85613;SDS011;76041;50.924;3.932;2024-03-07T14:39:22;44.35;;;24.60;;
85613;SDS011;76041;50.924;3.932;2024-03-07T14:44:36;36.75;;;22.60;;
85613;SDS011;76041;50.924;3.932;2024-03-07T14:47:05;41.35;;;22.77;;
85613;SDS011;76041;50.924;3.932;2024-03-07T14:49:33;44.25;;;23.02;;
85613;SDS011;76041;50.924;3.932;2024-03-07T14:52:00;39.60;;;21.45;;
85613;SDS011;76041;50.924;3.932;2024-03-07T14:54:28;39.70;;;22.33;;
85613;SDS011;76041;50.924;3.932;2024-03-07T14:56:54;36.58;;;20.85;;
85613;SDS011;76041;50.924;3.932;2024-03-07T14:59:20;52.00;;;21.67;;
85613;SDS011;76041;50.924;3.932;2024-03-07T15:01:46;46.28;;;20.48;;
85613;SDS011;76041;50.924;3.932;2024-03-07T15:04:13;38.10;;;21.25;;
85613;SDS011;76041;50.924;3.932;2024-03-07T15:06:41;36.72;;;20.85;;
85613;SDS011;76041;50.924;3.932;2024-03-07T15:09:11;34.22;;;19.83;;
85613;SDS011;76041;50.924;3.932;2024-03-07T15:11:38;39.70;;;21.48;;
85613;SDS011;76041;50.924;3.932;2024-03-07T15:14:08;40.53;;;23.00;;
85613;SDS011;76041;50.924;3.932;2024-03-07T15:16:37;40.00;;;22.02;;
85613;SDS011;76041;50.924;3.932;2024-03-07T15:19:07;39.75;;;20.98;;
85613;SDS011;76041;50.924;3.932;2024-03-07T15:21:34;37.05;;;20.60;;